Terminal Aerodrome Forecast
Issued by NWS

Home | Current Version | Previous Version | Text Only | Print | Product List | Glossary On
Versions: 1 2 3 4 5 6 7 8 9 10 11 12 13 14 15 16 17 18
028
FTUS46 KLOX 181201 AAA
TAFSBP
TAF AMD
KSBP 181201Z 1812/1912 VRB03KT 1/4SM FG VV002
     FM181500 VRB03KT 2SM BR BKN003
     FM181600 VRB03KT P6SM BKN200
     FM182000 31012KT P6SM SCT030 BKN100
     FM190500 31006KT P6SM SCT015 OVC030 PROB30 1908/1912 5SM SHRA
      BKN015=

USA.gov is the U.S. government's official web portal to all federal, state and local government web resources and services.